Time;durP1;ratioP1;P1;durP2;ratioP2;P2;SDS_P1;SDS_P2;PMS_P1;PMS_P2;Temp;Humidity;BMP_temperature;BMP_pressure;BME280_temperature;BME280_humidity;BME280_pressure;Samples;Min_cycle;Max_cycle;Signal;HPM_P1;HPM_P2
2022/09/05 00:02:02;;;;;;;3.03;2.43;;;17.10;99.90;;;;;;5095859;28;20191;-78
2022/09/05 00:05:04;;;;;;;4.20;2.73;;;17.00;99.90;;;;;;5095872;28;20205;-78
2022/09/05 00:07:53;;;;;;;5.77;2.67;;;17.00;99.90;;;;;;5095880;28;20177;-73
2022/09/05 00:10:37;;;;;;;5.93;3.30;;;16.90;99.90;;;;;;5095846;28;20174;-73
2022/09/05 00:13:08;;;;;;;3.20;2.20;;;16.80;99.90;;;;;;5095789;28;20200;-76
2022/09/05 00:15:59;;;;;;;4.40;2.63;;;16.80;99.90;;;;;;5095731;28;20228;-74
2022/09/05 00:19:06;;;;;;;2.60;2.40;;;16.80;99.90;;;;;;5095457;28;20266;-73
2022/09/05 00:22:08;;;;;;;8.73;5.17;;;16.60;99.90;;;;;;5095645;28;20182;-71
2022/09/05 00:24:53;;;;;;;2.63;2.43;;;16.50;99.90;;;;;;5095822;28;20212;-70
2022/09/05 00:27:40;;;;;;;3.17;2.87;;;16.40;99.90;;;;;;5095545;28;20163;-77
2022/09/05 00:30:12;;;;;;;3.73;2.43;;;16.10;99.90;;;;;;5095983;28;20559;-71
2022/09/05 00:33:04;;;;;;;4.70;2.40;;;-4.40;99.90;;;;;;5094567;28;20175;-73
2022/09/05 00:35:52;;;;;;;4.80;3.20;;;-3.00;99.90;;;;;;5094469;28;20475;-76
2022/09/05 00:38:22;;;;;;;3.33;3.10;;;-3.00;99.90;;;;;;5095615;28;20159;-75
2022/09/05 00:41:09;;;;;;;3.63;3.40;;;-4.10;99.90;;;;;;5095538;28;20195;-77
2022/09/05 00:43:42;;;;;;;1.73;1.63;;;-4.10;99.90;;;;;;5095367;28;20246;-73
2022/09/05 00:46:22;;;;;;;2.40;2.20;;;16.90;99.90;;;;;;5096846;28;20174;-72
2022/09/05 00:49:09;;;;;;;2.50;2.30;;;16.90;99.90;;;;;;5099025;28;20238;-75
2022/09/05 00:51:37;;;;;;;2.60;2.40;;;16.90;99.90;;;;;;5099205;28;20586;-72
2022/09/05 00:54:22;;;;;;;3.00;2.70;;;16.80;99.90;;;;;;5099257;28;20186;-74
2022/09/05 00:57:21;;;;;;;2.40;2.30;;;16.80;99.90;;;;;;5099115;28;20177;-77
2022/09/05 01:00:07;;;;;;;2.70;2.50;;;16.90;99.90;;;;;;5097526;28;20301;-75
2022/09/05 01:02:41;;;;;;;3.00;2.77;;;16.90;99.90;;;;;;5098881;28;20444;-76
2022/09/05 01:05:23;;;;;;;2.37;2.27;;;16.80;99.90;;;;;;5099147;28;20197;-75
2022/09/05 01:08:24;;;;;;;4.93;3.17;;;16.70;99.90;;;;;;5098904;28;20602;-74
2022/09/05 01:11:05;;;;;;;3.37;2.50;;;16.70;99.90;;;;;;5075702;28;20505;-74
2022/09/05 01:13:53;;;;;;;3.57;2.80;;;16.70;99.90;;;;;;5098808;28;20159;-77
2022/09/05 01:16:33;;;;;;;2.80;2.63;;;16.60;99.90;;;;;;5098428;28;20212;-73
2022/09/05 01:19:17;;;;;;;3.40;2.30;;;16.60;99.90;;;;;;5097563;28;20206;-74
2022/09/05 01:21:51;;;;;;;4.17;2.93;;;16.60;99.90;;;;;;5098782;28;20228;-73
2022/09/05 01:24:31;;;;;;;3.67;3.37;;;16.60;99.90;;;;;;5097564;28;20173;-75
2022/09/05 01:27:34;;;;;;;3.17;2.77;;;16.60;99.90;;;;;;5097583;28;20577;-73
2022/09/05 01:30:32;;;;;;;4.93;2.70;;;16.60;99.90;;;;;;5097372;28;20681;-77
2022/09/05 01:33:08;;;;;;;2.17;2.03;;;16.60;99.90;;;;;;5088929;28;20644;-73
2022/09/05 01:36:08;;;;;;;6.97;2.80;;;16.60;99.90;;;;;;5097319;28;20188;-75
2022/09/05 01:39:13;;;;;;;2.70;2.50;;;16.60;99.90;;;;;;5073801;28;20477;-74
2022/09/05 01:42:07;;;;;;;3.23;2.13;;;16.50;99.90;;;;;;5086376;28;20183;-72
2022/09/05 01:44:55;;;;;;;2.20;2.00;;;16.60;99.90;;;;;;5098218;28;20297;-77
2022/09/05 01:47:42;;;;;;;2.30;2.20;;;16.70;99.90;;;;;;5098054;28;20162;-73
2022/09/05 01:50:31;;;;;;;2.70;2.50;;;16.70;99.90;;;;;;5098319;28;20510;-74
2022/09/05 01:53:26;;;;;;;2.87;2.27;;;16.80;99.90;;;;;;5098269;28;20244;-76
2022/09/05 01:56:22;;;;;;;2.23;2.13;;;16.80;99.90;;;;;;5098135;28;20177;-74
2022/09/05 01:58:56;;;;;;;3.00;2.70;;;16.90;99.90;;;;;;5097874;28;20194;-74
2022/09/05 02:01:54;;;;;;;2.33;2.13;;;16.80;99.90;;;;;;5097628;28;20190;-73
2022/09/05 02:04:28;;;;;;;3.73;3.03;;;16.90;99.90;;;;;;5096346;28;20262;-72
2022/09/05 02:07:36;;;;;;;3.67;3.10;;;16.80;99.90;;;;;;5097731;28;20167;-75
2022/09/05 02:10:29;;;;;;;5.50;2.30;;;16.80;99.90;;;;;;5097700;28;20202;-74
2022/09/05 02:13:17;;;;;;;2.37;2.27;;;16.80;99.90;;;;;;5097771;28;20382;-73
2022/09/05 02:16:09;;;;;;;2.57;2.43;;;16.80;99.90;;;;;;5097340;28;20527;-73
2022/09/05 02:19:05;;;;;;;3.10;2.90;;;16.80;99.90;;;;;;5097445;28;20195;-71
2022/09/05 02:21:39;;;;;;;3.00;2.20;;;16.70;99.90;;;;;;5097534;28;20171;-73
2022/09/05 02:24:30;;;;;;;3.60;2.83;;;16.60;99.90;;;;;;5096569;28;20177;-76
2022/09/05 02:27:11;;;;;;;2.60;2.33;;;16.60;99.90;;;;;;5096529;28;20175;-73
2022/09/05 02:29:59;;;;;;;3.00;2.80;;;16.60;99.90;;;;;;5097040;28;20208;-73
2022/09/05 02:33:02;;;;;;;3.03;2.83;;;16.50;99.90;;;;;;5097654;28;20574;-73
2022/09/05 02:35:38;;;;;;;4.13;2.43;;;16.60;99.90;;;;;;5097194;28;20254;-74
2022/09/05 02:38:13;;;;;;;3.53;3.10;;;16.50;99.90;;;;;;5097498;28;20166;-71
2022/09/05 02:40:46;;;;;;;3.23;2.20;;;16.60;99.90;;;;;;5097061;28;20198;-72
2022/09/05 02:43:46;;;;;;;2.67;2.50;;;16.50;99.90;;;;;;5097412;28;20162;-72
2022/09/05 02:46:45;;;;;;;2.70;2.10;;;16.50;99.90;;;;;;5097452;28;20166;-72
2022/09/05 02:49:24;;;;;;;2.57;2.47;;;16.40;99.90;;;;;;5059966;28;20263;-75
2022/09/05 02:52:10;;;;;;;5.03;2.77;;;16.30;99.90;;;;;;5097465;28;20178;-75
2022/09/05 02:54:42;;;;;;;2.67;2.57;;;16.30;99.90;;;;;;5098289;28;20177;-76
2022/09/05 02:57:30;;;;;;;3.90;2.60;;;16.30;99.90;;;;;;5105098;28;20167;-73
2022/09/05 03:00:14;;;;;;;4.13;2.80;;;16.30;99.90;;;;;;5103343;28;20259;-73
2022/09/05 03:03:05;;;;;;;2.93;2.73;;;16.30;99.90;;;;;;5103128;28;20162;-74
2022/09/05 03:05:57;;;;;;;2.93;2.73;;;16.30;99.90;;;;;;5103639;28;20158;-76
2022/09/05 03:08:39;;;;;;;5.83;3.13;;;16.30;99.90;;;;;;5096448;28;20203;-73
2022/09/05 03:11:30;;;;;;;2.77;2.63;;;16.20;99.90;;;;;;5096546;28;20158;-76
2022/09/05 03:14:05;;;;;;;4.67;2.57;;;16.00;99.90;;;;;;5096646;28;20461;-74
2022/09/05 03:16:56;;;;;;;2.03;1.90;;;15.60;99.90;;;;;;5096589;28;20240;-72
2022/09/05 03:19:53;;;;;;;2.50;2.30;;;15.60;99.90;;;;;;5096484;28;20191;-73
2022/09/05 03:22:50;;;;;;;2.30;2.10;;;15.50;99.90;;;;;;5096838;28;20486;-71
2022/09/05 03:25:49;;;;;;;2.77;2.57;;;15.50;99.90;;;;;;5096489;28;20215;-76
2022/09/05 03:28:52;;;;;;;2.27;2.17;;;15.40;99.90;;;;;;5095159;28;20166;-75
2022/09/05 03:31:33;;;;;;;3.70;2.80;;;14.90;99.90;;;;;;5096464;28;20175;-75
2022/09/05 03:34:20;;;;;;;2.77;2.50;;;14.60;99.90;;;;;;5096502;28;20166;-78
2022/09/05 03:37:05;;;;;;;4.03;2.63;;;14.70;99.90;;;;;;5096226;28;20162;-74
2022/09/05 03:40:05;;;;;;;2.80;2.33;;;14.70;99.90;;;;;;5096147;28;20193;-75
2022/09/05 03:42:57;;;;;;;2.57;2.37;;;14.70;99.90;;;;;;5095711;28;20167;-72
2022/09/05 03:45:50;;;;;;;2.57;2.23;;;14.70;99.90;;;;;;5096124;28;20163;-74
2022/09/05 03:48:22;;;;;;;4.57;2.73;;;15.00;99.90;;;;;;5096129;28;20170;-78
2022/09/05 03:50:59;;;;;;;3.73;2.67;;;15.10;99.90;;;;;;5095963;28;20191;-74
2022/09/05 03:53:41;;;;;;;2.67;2.47;;;15.00;99.90;;;;;;5096109;28;20173;-74
2022/09/05 03:56:31;;;;;;;2.37;1.80;;;14.80;99.90;;;;;;5095646;28;20227;-73
2022/09/05 03:59:24;;;;;;;3.67;2.47;;;14.80;99.90;;;;;;5095664;28;20195;-72
2022/09/05 04:02:03;;;;;;;2.40;2.23;;;14.70;99.90;;;;;;5095769;28;20213;-73
2022/09/05 04:04:49;;;;;;;2.30;2.20;;;14.70;99.90;;;;;;5095907;28;20253;-73
2022/09/05 04:07:39;;;;;;;2.63;2.43;;;14.70;99.90;;;;;;5095782;28;20155;-73
2022/09/05 04:10:19;;;;;;;3.77;2.10;;;14.50;99.90;;;;;;5095861;28;20213;-73
2022/09/05 04:12:54;;;;;;;2.47;2.37;;;14.40;99.90;;;;;;5095769;28;20488;-71
2022/09/05 04:15:41;;;;;;;3.30;2.57;;;14.30;99.90;;;;;;5095818;28;20169;-70
2022/09/05 04:18:19;;;;;;;2.70;2.50;;;14.20;99.90;;;;;;5095800;28;20167;-76
2022/09/05 04:21:23;;;;;;;2.70;1.93;;;14.20;99.90;;;;;;5096442;28;20192;-74
2022/09/05 04:24:25;;;;;;;2.50;2.30;;;16.60;99.90;;;;;;5098128;28;20213;-71
2022/09/05 04:27:09;;;;;;;2.40;2.10;;;16.60;99.90;;;;;;5099468;28;20154;-77
2022/09/05 04:29:41;;;;;;;2.03;1.93;;;16.60;99.90;;;;;;5099625;28;20178;-75
2022/09/05 04:32:34;;;;;;;2.93;2.67;;;16.60;99.90;;;;;;5099495;28;20171;-77
2022/09/05 04:35:34;;;;;;;2.53;2.33;;;16.60;99.90;;;;;;5099672;28;20170;-74
2022/09/05 04:38:15;;;;;;;2.87;2.43;;;16.60;99.90;;;;;;5077984;28;20186;-72
2022/09/05 04:41:03;;;;;;;3.77;2.83;;;16.60;99.90;;;;;;5099060;28;20231;-75
2022/09/05 04:43:49;;;;;;;2.70;2.50;;;16.60;99.90;;;;;;5098220;28;20169;-75
2022/09/05 04:46:51;;;;;;;2.13;2.00;;;16.60;99.90;;;;;;5097819;28;20586;-71
2022/09/05 04:49:38;;;;;;;2.43;2.30;;;16.60;99.90;;;;;;5090067;28;20182;-75
2022/09/05 04:52:21;;;;;;;3.33;3.00;;;16.70;99.90;;;;;;5098150;28;20715;-75
2022/09/05 04:55:02;;;;;;;2.57;2.37;;;16.80;99.90;;;;;;5098856;28;20224;-73
2022/09/05 04:57:53;;;;;;;2.30;2.17;;;16.80;99.90;;;;;;5099054;28;20541;-71
2022/09/05 05:00:31;;;;;;;2.30;2.03;;;16.90;99.90;;;;;;5098942;28;20210;-72
2022/09/05 05:03:09;;;;;;;2.20;2.00;;;16.90;99.90;;;;;;5097982;28;20163;-72
2022/09/05 05:05:53;;;;;;;1.70;1.60;;;17.00;99.90;;;;;;5097966;28;20163;-72
2022/09/05 05:08:27;;;;;;;2.30;2.20;;;17.10;99.90;;;;;;5097554;28;20224;-72
2022/09/05 05:11:09;;;;;;;2.33;2.13;;;17.30;99.90;;;;;;5099037;28;20163;-72
2022/09/05 05:13:43;;;;;;;3.87;1.70;;;17.40;99.90;;;;;;5098753;28;20198;-72
2022/09/05 05:16:23;;;;;;;1.63;1.53;;;17.50;99.90;;;;;;5098719;28;20174;-72
2022/09/05 05:19:08;;;;;;;2.27;2.07;;;17.60;99.90;;;;;;5098518;28;20170;-71
2022/09/05 05:21:35;;;;;;;1.97;1.87;;;17.20;99.90;;;;;;5098736;28;20772;-70
2022/09/05 05:24:14;;;;;;;5.17;2.37;;;17.30;99.90;;;;;;5098449;28;20165;-70
2022/09/05 05:26:56;;;;;;;3.60;2.20;;;17.40;99.90;;;;;;5098786;28;20456;-72
2022/09/05 05:29:48;;;;;;;2.10;1.60;;;17.30;99.90;;;;;;5098628;28;20174;-71
2022/09/05 05:32:45;;;;;;;2.97;2.23;;;17.40;99.90;;;;;;5098371;28;20163;-71
2022/09/05 05:35:12;;;;;;;3.30;2.77;;;17.20;99.90;;;;;;5098811;28;20188;-72
2022/09/05 05:37:49;;;;;;;2.57;2.17;;;17.20;99.90;;;;;;5097451;28;20174;-74
2022/09/05 05:40:14;;;;;;;6.83;3.03;;;17.30;99.90;;;;;;5098732;28;20194;-75
2022/09/05 05:42:41;;;;;;;2.43;2.13;;;17.70;99.90;;;;;;5098598;28;20574;-75
2022/09/05 05:45:27;;;;;;;2.97;2.67;;;18.00;99.90;;;;;;5098144;28;20171;-70
2022/09/05 05:48:13;;;;;;;4.17;2.90;;;18.20;99.90;;;;;;5098322;28;20163;-72
2022/09/05 05:50:42;;;;;;;1.80;1.70;;;18.40;99.90;;;;;;5098296;28;20202;-72
2022/09/05 05:53:17;;;;;;;2.57;2.10;;;18.40;99.90;;;;;;5098130;28;20169;-75
2022/09/05 05:56:11;;;;;;;2.17;2.00;;;18.40;99.90;;;;;;5098212;28;20629;-72
2022/09/05 05:59:18;;;;;;;1.90;1.80;;;18.30;99.90;;;;;;5097865;28;20163;-74
2022/09/05 06:02:08;;;;;;;1.67;1.40;;;18.00;99.90;;;;;;5081739;28;20193;-77
2022/09/05 06:05:08;;;;;;;4.93;1.87;;;17.00;99.90;;;;;;5097768;28;20205;-75
2022/09/05 06:07:44;;;;;;;2.53;2.23;;;18.60;99.90;;;;;;5097616;28;20158;-70
2022/09/05 06:10:42;;;;;;;2.23;2.03;;;18.90;99.90;;;;;;5096723;28;20462;-73
2022/09/05 06:13:14;;;;;;;2.47;2.03;;;19.10;99.90;;;;;;5096747;28;20182;-72
2022/09/05 06:15:58;;;;;;;1.70;1.60;;;19.20;99.90;;;;;;5097571;28;20728;-71
2022/09/05 06:18:59;;;;;;;5.80;2.30;;;19.20;99.90;;;;;;5097537;28;20166;-70
2022/09/05 06:21:50;;;;;;;2.80;2.00;;;19.10;99.90;;;;;;5097347;28;20162;-72
2022/09/05 06:24:35;;;;;;;1.70;1.57;;;-2.70;99.90;;;;;;5092462;28;20270;-74
2022/09/05 06:27:07;;;;;;;2.57;1.70;;;-2.00;99.90;;;;;;5096464;28;20187;-71
2022/09/05 06:29:54;;;;;;;3.70;1.40;;;20.10;99.90;;;;;;5097211;28;20189;-72
2022/09/05 06:32:25;;;;;;;2.80;2.17;;;20.10;99.90;;;;;;5097457;28;20445;-73
2022/09/05 06:35:17;;;;;;;2.00;1.80;;;20.20;99.90;;;;;;5096150;28;20171;-72
2022/09/05 06:38:10;;;;;;;3.60;1.40;;;20.30;99.90;;;;;;5097244;28;20182;-74
2022/09/05 06:40:41;;;;;;;1.40;1.40;;;20.30;99.90;;;;;;5095944;28;20203;-70
2022/09/05 06:43:38;;;;;;;3.47;2.47;;;20.20;99.90;;;;;;5096566;28;20631;-72
2022/09/05 06:46:41;;;;;;;1.67;1.50;;;20.30;99.90;;;;;;5097053;28;20166;-71
2022/09/05 06:49:19;;;;;;;2.43;1.63;;;20.40;99.90;;;;;;5062596;28;20181;-71
2022/09/05 06:52:15;;;;;;;1.80;1.70;;;20.30;99.90;;;;;;5095607;28;20194;-75
2022/09/05 06:55:14;;;;;;;2.07;1.60;;;20.20;99.90;;;;;;5096656;28;20252;-70
2022/09/05 06:57:58;;;;;;;2.90;1.33;;;20.30;99.90;;;;;;5096950;28;20574;-72
2022/09/05 07:00:36;;;;;;;1.90;1.73;;;20.30;99.90;;;;;;5096910;28;20309;-70
2022/09/05 07:03:19;;;;;;;5.60;1.60;;;20.20;99.90;;;;;;5095823;28;20171;-70
2022/09/05 07:05:57;;;;;;;4.87;1.97;;;20.10;99.90;;;;;;5096380;28;20253;-72
2022/09/05 07:08:29;;;;;;;2.03;1.93;;;20.00;99.90;;;;;;5096712;28;20166;-71
2022/09/05 07:11:20;;;;;;;1.87;1.77;;;19.90;99.90;;;;;;5096604;28;20196;-72
2022/09/05 07:14:15;;;;;;;3.40;1.30;;;19.60;99.90;;;;;;5064443;28;20175;-72
2022/09/05 07:16:50;;;;;;;2.57;2.37;;;19.40;99.90;;;;;;5082521;28;20252;-73
2022/09/05 07:19:38;;;;;;;3.90;2.10;;;19.00;99.90;;;;;;5096388;28;20194;-72
2022/09/05 07:22:32;;;;;;;5.73;2.03;;;18.30;99.90;;;;;;5096215;28;20171;-71
2022/09/05 07:25:03;;;;;;;3.57;1.47;;;21.10;99.90;;;;;;5096247;28;20171;-70
2022/09/05 07:27:48;;;;;;;1.67;1.57;;;21.20;99.90;;;;;;5096362;28;20163;-73
2022/09/05 07:30:17;;;;;;;5.17;1.77;;;21.30;99.90;;;;;;5096309;28;20182;-71
2022/09/05 07:32:48;;;;;;;3.67;1.77;;;21.30;99.90;;;;;;5096346;28;20181;-72
2022/09/05 07:35:28;;;;;;;3.37;2.13;;;21.40;99.90;;;;;;5096082;28;20178;-71
2022/09/05 07:38:25;;;;;;;2.30;2.07;;;21.50;99.90;;;;;;5096214;28;20574;-71
2022/09/05 07:41:02;;;;;;;2.57;1.77;;;21.60;99.90;;;;;;5096042;28;20201;-71
2022/09/05 07:43:35;;;;;;;2.10;1.70;;;21.60;99.90;;;;;;5096194;28;20596;-72
2022/09/05 07:46:12;;;;;;;5.13;3.67;;;21.60;99.90;;;;;;5095902;28;20205;-71
2022/09/05 07:48:51;;;;;;;4.07;2.47;;;21.70;99.90;;;;;;5095945;28;20163;-71
2022/09/05 07:51:26;;;;;;;4.03;3.33;;;21.70;99.90;;;;;;5095931;28;20182;-71
2022/09/05 07:54:08;;;;;;;3.83;2.73;;;21.60;99.90;;;;;;5095944;28;20173;-72
2022/09/05 07:56:48;;;;;;;6.97;2.47;;;21.70;99.90;;;;;;5094636;28;20861;-71
2022/09/05 07:59:16;;;;;;;2.93;1.80;;;21.80;99.90;;;;;;5095542;28;20209;-72
2022/09/05 08:01:45;;;;;;;2.40;2.20;;;21.80;99.90;;;;;;5095928;28;20175;-72
2022/09/05 08:04:24;;;;;;;3.83;2.07;;;21.90;99.90;;;;;;5095775;28;20167;-72
2022/09/05 08:06:51;;;;;;;4.97;2.37;;;21.90;99.90;;;;;;5094757;28;20166;-72
2022/09/05 08:09:33;;;;;;;2.30;1.87;;;22.00;99.90;;;;;;5096203;28;20174;-71
2022/09/05 08:12:10;;;;;;;3.50;2.23;;;21.90;99.90;;;;;;5094594;28;20258;-72
2022/09/05 08:14:36;;;;;;;5.20;2.37;;;21.30;99.90;;;;;;5095827;28;20166;-74
2022/09/05 08:17:07;;;;;;;2.57;2.37;;;22.30;99.90;;;;;;5095507;28;20301;-71
2022/09/05 08:19:54;;;;;;;2.87;2.23;;;22.30;99.90;;;;;;5095767;28;20510;-71
2022/09/05 08:22:24;;;;;;;2.00;1.70;;;22.30;99.90;;;;;;5095661;28;20241;-72
2022/09/05 08:24:56;;;;;;;2.53;1.97;;;22.30;99.90;;;;;;5095673;28;20162;-72
2022/09/05 08:28:12;;;;;;;2.60;1.53;;;22.10;99.90;;;;;;5095594;28;20195;-71
2022/09/05 08:30:44;;;;;;;4.03;1.73;;;19.00;99.90;;;;;;5077932;28;20195;-71
2022/09/05 08:33:32;;;;;;;1.67;1.57;;;22.70;99.90;;;;;;5095324;28;20174;-71
2022/09/05 08:36:10;;;;;;;2.40;1.60;;;22.70;99.90;;;;;;5095555;28;20265;-70
2022/09/05 08:38:39;;;;;;;2.73;2.53;;;22.70;99.90;;;;;;5095745;28;20220;-71
2022/09/05 08:41:24;;;;;;;4.70;2.20;;;22.60;99.90;;;;;;5094448;28;20479;-70
2022/09/05 08:44:29;;;;;;;2.40;1.57;;;-40.00;81.80;;;;;;5095449;28;20570;-69
2022/09/05 08:47:21;;;;;;;2.40;1.77;;;-40.00;80.60;;;;;;5074147;28;20488;-71
2022/09/05 08:50:14;;;;;;;3.17;1.80;;;-40.00;80.30;;;;;;5095547;28;20655;-71
2022/09/05 08:53:04;;;;;;;4.80;2.03;;;-40.00;80.80;;;;;;5095327;28;20171;-73
2022/09/05 08:55:50;;;;;;;6.43;1.57;;;-40.00;79.50;;;;;;5095514;28;20219;-72
2022/09/05 08:58:28;;;;;;;2.07;1.73;;;-40.00;76.70;;;;;;5095052;28;20179;-71
2022/09/05 09:01:26;;;;;;;2.20;1.23;;;-40.00;76.20;;;;;;5093992;28;20202;-70
2022/09/05 09:04:11;;;;;;;1.83;1.40;;;-40.00;76.30;;;;;;5094415;28;20171;-73
2022/09/05 09:06:40;;;;;;;1.90;1.40;;;-40.00;75.20;;;;;;5095863;28;20258;-76
2022/09/05 09:09:26;;;;;;;5.80;1.97;;;-40.00;73.70;;;;;;5098986;28;20219;-71
2022/09/05 09:12:17;;;;;;;4.13;1.43;;;-40.00;74.60;;;;;;5098960;28;20208;-72
2022/09/05 09:14:56;;;;;;;2.00;1.80;;;-40.00;74.70;;;;;;5093828;28;20175;-70
2022/09/05 09:17:41;;;;;;;2.40;1.37;;;-40.00;74.70;;;;;;5098898;28;20163;-72
2022/09/05 09:20:36;;;;;;;1.70;1.60;;;-40.00;74.50;;;;;;5098812;28;20466;-72
2022/09/05 09:23:17;;;;;;;1.47;1.43;;;-40.00;74.10;;;;;;5098742;28;20166;-71
2022/09/05 09:26:09;;;;;;;3.13;2.33;;;-40.00;73.40;;;;;;5098772;28;20231;-71
2022/09/05 09:28:47;;;;;;;5.33;1.50;;;-40.00;72.20;;;;;;5079126;28;20244;-73
2022/09/05 09:31:29;;;;;;;4.37;2.27;;;-40.00;72.60;;;;;;5098414;28;20577;-72
2022/09/05 09:34:25;;;;;;;2.27;1.30;;;-40.00;70.90;;;;;;5098329;28;20467;-72
2022/09/05 09:37:03;;;;;;;6.73;2.50;;;22.60;99.10;;;;;;5098590;28;20473;-70
2022/09/05 09:40:08;;;;;;;2.23;1.77;;;24.10;99.70;;;;;;5098270;28;20254;-73
2022/09/05 09:43:04;;;;;;;3.03;1.73;;;24.00;99.50;;;;;;5098424;28;20194;-74
2022/09/05 09:45:52;;;;;;;2.70;1.20;;;23.70;99.10;;;;;;5098298;28;20497;-76
2022/09/05 09:48:36;;;;;;;3.60;2.13;;;23.00;98.80;;;;;;5098196;28;20170;-72
2022/09/05 09:51:25;;;;;;;5.53;1.57;;;-40.00;67.40;;;;;;5098123;28;20251;-77
2022/09/05 09:53:57;;;;;;;3.10;1.73;;;-40.00;69.20;;;;;;5097986;28;20159;-74
2022/09/05 09:56:38;;;;;;;2.30;1.50;;;-40.00;68.60;;;;;;5097117;28;20601;-73
2022/09/05 09:59:09;;;;;;;4.63;1.60;;;-40.00;68.40;;;;;;5097407;28;20631;-76
2022/09/05 10:02:03;;;;;;;2.40;2.20;;;-40.00;67.60;;;;;;5098629;28;20171;-70
2022/09/05 10:04:29;;;;;;;3.50;1.63;;;-40.00;66.60;;;;;;5097747;28;20210;-73
2022/09/05 10:07:06;;;;;;;5.83;1.67;;;-40.00;64.60;;;;;;5097951;28;20162;-72
2022/09/05 10:10:14;;;;;;;3.23;1.80;;;-40.00;63.70;;;;;;5097817;28;20205;-72
2022/09/05 10:12:46;;;;;;;2.87;1.63;;;-40.00;63.80;;;;;;5097686;28;20178;-71
2022/09/05 10:15:29;;;;;;;4.10;1.70;;;-40.00;64.30;;;;;;5097651;28;20378;-71
2022/09/05 10:18:06;;;;;;;3.43;1.80;;;-40.00;62.10;;;;;;5097550;28;20171;-73
2022/09/05 10:20:34;;;;;;;2.10;1.43;;;-40.00;60.30;;;;;;5097468;28;20609;-70
2022/09/05 10:23:24;;;;;;;5.80;2.53;;;-40.00;57.40;;;;;;5096561;28;20181;-70
2022/09/05 10:26:08;;;;;;;4.50;1.73;;;-40.00;58.20;;;;;;5097314;28;20174;-71
2022/09/05 10:28:34;;;;;;;1.80;1.50;;;-40.00;56.80;;;;;;5097010;28;20212;-70
2022/09/05 10:31:05;;;;;;;1.57;1.10;;;-40.00;57.20;;;;;;5096331;28;20179;-71
2022/09/05 10:33:41;;;;;;;4.40;1.40;;;-40.00;55.30;;;;;;5097439;28;20216;-73
2022/09/05 10:36:25;;;;;;;1.87;1.27;;;-40.00;55.20;;;;;;5097163;28;20269;-72
2022/09/05 10:39:34;;;;;;;3.43;1.67;;;-40.00;55.90;;;;;;5097397;28;20171;-70
2022/09/05 10:42:17;;;;;;;1.93;1.83;;;-40.00;55.50;;;;;;5054763;28;20286;-70
2022/09/05 10:44:55;;;;;;;4.33;2.00;;;-40.00;55.90;;;;;;5054892;28;20184;-70
2022/09/05 10:47:51;;;;;;;2.57;1.43;;;-40.00;55.80;;;;;;5084330;28;20182;-70
2022/09/05 10:50:36;;;;;;;3.30;1.50;;;-40.00;54.30;;;;;;5096912;28;20218;-69
2022/09/05 10:53:22;;;;;;;3.67;1.00;;;26.60;91.40;;;;;;5096220;28;20540;-70
2022/09/05 10:56:05;;;;;;;2.10;1.33;;;28.30;91.40;;;;;;5096857;28;20262;-70
2022/09/05 10:58:42;;;;;;;6.03;1.53;;;28.30;91.90;;;;;;5095436;28;20209;-71
2022/09/05 11:01:32;;;;;;;1.50;1.13;;;27.20;91.30;;;;;;5096566;28;20255;-70
2022/09/05 11:04:28;;;;;;;1.97;1.73;;;27.80;90.30;;;;;;5091174;28;20193;-70
2022/09/05 11:07:03;;;;;;;1.60;1.50;;;29.00;90.10;;;;;;5096780;28;20236;-70
2022/09/05 11:09:58;;;;;;;3.70;1.10;;;28.80;90.90;;;;;;5096767;28;20465;-71
2022/09/05 11:12:38;;;;;;;1.00;1.00;;;-40.00;47.80;;;;;;5096415;28;20167;-71
2022/09/05 11:15:20;;;;;;;1.00;1.00;;;-40.00;47.60;;;;;;5096366;28;20170;-71
2022/09/05 11:18:02;;;;;;;1.30;1.20;;;-40.00;45.70;;;;;;5096605;28;20167;-69
2022/09/05 11:20:49;;;;;;;2.73;1.63;;;-40.00;44.80;;;;;;5096257;28;20590;-70
2022/09/05 11:23:20;;;;;;;3.23;1.63;;;-40.00;44.40;;;;;;5096496;28;20167;-74
2022/09/05 11:25:57;;;;;;;1.40;0.87;;;-40.00;43.60;;;;;;5095084;28;20235;-73
2022/09/05 11:28:31;;;;;;;0.97;0.97;;;-40.00;44.60;;;;;;5096477;28;20219;-71
2022/09/05 11:31:00;;;;;;;2.87;1.47;;;-40.00;44.40;;;;;;5095858;28;20227;-73
2022/09/05 11:33:56;;;;;;;5.83;1.73;;;-40.00;44.90;;;;;;5096406;28;20194;-71
2022/09/05 11:36:30;;;;;;;1.70;1.20;;;-40.00;44.80;;;;;;5096177;28;20574;-72
2022/09/05 11:39:35;;;;;;;2.50;1.40;;;-40.00;44.30;;;;;;5096294;28;20174;-72
2022/09/05 11:42:20;;;;;;;1.43;1.33;;;-40.00;42.70;;;;;;5095841;28;20249;-72
2022/09/05 11:45:17;;;;;;;2.50;1.77;;;-40.00;42.70;;;;;;5096083;28;20162;-72
2022/09/05 11:48:23;;;;;;;3.80;1.45;;;-40.00;39.60;;;;;;5095981;28;20167;-75
2022/09/05 11:51:33;;;;;;;4.03;1.65;;;-40.00;39.90;;;;;;5096177;28;20186;-72
2022/09/05 11:54:18;;;;;;;2.05;1.83;;;-40.00;40.70;;;;;;5095121;28;20177;-70
2022/09/05 11:57:07;;;;;;;1.52;1.42;;;-40.00;41.00;;;;;;5095005;28;20204;-71
2022/09/05 11:59:38;;;;;;;1.27;1.23;;;-40.00;39.20;;;;;;5096137;28;20219;-71
2022/09/05 12:02:13;;;;;;;3.30;1.40;;;-40.00;38.40;;;;;;5095935;28;20163;-70
2022/09/05 12:05:16;;;;;;;2.35;2.00;;;-38.60;35.90;;;;;;5095959;28;20169;-70
2022/09/05 12:07:45;;;;;;;1.85;1.75;;;-27.50;38.90;;;;;;5072729;28;20688;-71
2022/09/05 12:10:16;;;;;;;2.25;1.73;;;-20.30;41.00;;;;;;5095732;28;20166;-74
2022/09/05 12:13:24;;;;;;;6.05;1.52;;;-17.90;42.10;;;;;;5095837;28;20163;-78
2022/09/05 12:15:50;;;;;;;3.63;1.67;;;-8.60;47.40;;;;;;5096044;28;20190;-72
2022/09/05 12:18:34;;;;;;;2.92;1.45;;;-5.20;50.00;;;;;;5095826;28;20170;-79
2022/09/05 12:21:30;;;;;;;1.08;1.08;;;-9.90;47.40;;;;;;5095888;28;20198;-79
2022/09/05 12:24:24;;;;;;;1.25;1.25;;;-7.30;47.10;;;;;;5095670;28;20166;-78
2022/09/05 12:26:58;;;;;;;6.82;1.42;;;-12.80;43.40;;;;;;5090518;28;20178;-80
2022/09/05 12:29:26;;;;;;;1.80;1.38;;;2.30;52.20;;;;;;5095479;28;20174;-77
2022/09/05 12:31:59;;;;;;;2.17;1.33;;;-12.50;44.00;;;;;;5095602;28;20497;-78
2022/09/05 12:34:52;;;;;;;1.55;1.45;;;-4.20;50.60;;;;;;5094602;28;20248;-78
2022/09/05 12:37:38;;;;;;;1.13;1.13;;;-7.10;48.80;;;;;;5095673;28;20242;-78
2022/09/05 12:40:29;;;;;;;1.60;1.50;;;-9.60;47.70;;;;;;5094202;28;20601;-76
2022/09/05 12:43:00;;;;;;;1.98;1.38;;;-11.00;44.00;;;;;;5097956;28;20472;-78
2022/09/05 12:45:48;;;;;;;2.42;1.40;;;-6.50;44.90;;;;;;5098431;28;20597;-80
2022/09/05 12:48:36;;;;;;;13.23;2.15;;;2.30;47.10;;;;;;5099187;28;20174;-76
2022/09/05 12:51:14;;;;;;;3.67;1.45;;;7.50;48.10;;;;;;5099624;28;20179;-76
2022/09/05 12:53:44;;;;;;;1.58;1.25;;;8.90;50.10;;;;;;5099277;28;20167;-77
2022/09/05 12:56:25;;;;;;;1.40;1.27;;;6.60;49.00;;;;;;5099309;28;20167;-73
2022/09/05 12:58:53;;;;;;;1.30;1.30;;;5.70;49.40;;;;;;5099048;28;20191;-76
2022/09/05 13:01:22;;;;;;;1.40;1.30;;;-0.20;48.80;;;;;;5099052;28;20237;-80
2022/09/05 13:04:03;;;;;;;1.58;1.48;;;0.90;49.40;;;;;;5099178;28;20566;-74
2022/09/05 13:06:39;;;;;;;2.13;1.48;;;2.90;51.00;;;;;;5099193;28;20178;-77
2022/09/05 13:09:23;;;;;;;2.80;1.30;;;3.30;50.90;;;;;;5098828;28;20866;-79
2022/09/05 13:12:02;;;;;;;1.60;1.50;;;4.00;50.70;;;;;;5100571;28;20155;-75
2022/09/05 13:14:35;;;;;;;1.98;1.10;;;3.90;52.60;;;;;;5107057;28;20178;-71
2022/09/05 13:17:04;;;;;;;2.70;1.65;;;4.30;52.80;;;;;;5115746;28;20159;-74
2022/09/05 13:19:39;;;;;;;1.92;1.63;;;3.20;52.60;;;;;;5106843;28;20187;-77
2022/09/05 13:22:08;;;;;;;2.78;1.50;;;7.00;53.30;;;;;;5098575;28;20174;-76
2022/09/05 13:24:40;;;;;;;1.88;1.27;;;8.80;52.70;;;;;;5098745;28;20170;-75
2022/09/05 13:27:28;;;;;;;2.40;1.50;;;8.40;53.90;;;;;;5098808;28;20155;-73
2022/09/05 13:30:07;;;;;;;5.93;1.80;;;6.00;52.50;;;;;;5098437;28;20179;-76
2022/09/05 13:32:37;;;;;;;3.95;1.63;;;9.30;52.40;;;;;;5098630;28;20185;-74
2022/09/05 13:35:14;;;;;;;8.70;2.20;;;5.40;51.40;;;;;;5098630;28;20163;-75
2022/09/05 13:38:00;;;;;;;1.52;1.52;;;9.30;52.30;;;;;;5098710;28;20158;-74
2022/09/05 13:40:38;;;;;;;2.15;1.92;;;11.40;52.10;;;;;;5097247;28;20225;-76
2022/09/05 13:43:06;;;;;;;3.22;1.55;;;9.50;51.00;;;;;;5098509;28;20570;-73
2022/09/05 13:45:43;;;;;;;7.20;1.90;;;11.90;51.60;;;;;;5098564;28;20167;-77
2022/09/05 13:48:33;;;;;;;4.07;1.58;;;18.40;52.10;;;;;;5098379;28;20167;-77
2022/09/05 13:51:18;;;;;;;2.97;1.80;;;22.00;51.40;;;;;;5078332;28;20195;-76
2022/09/05 13:53:52;;;;;;;1.85;1.75;;;22.70;51.90;;;;;;5096561;28;20170;-69
2022/09/05 13:56:26;;;;;;;2.95;1.70;;;21.70;51.30;;;;;;5098313;28;20475;-69
2022/09/05 13:59:04;;;;;;;2.00;1.90;;;20.20;50.90;;;;;;5097868;28;20195;-70
2022/09/05 14:02:18;;;;;;;4.28;2.60;;;20.00;51.50;;;;;;5096860;28;20170;-70
2022/09/05 14:05:23;;;;;;;1.70;1.60;;;16.20;52.70;;;;;;5060733;28;20225;-70
2022/09/05 14:08:10;;;;;;;5.45;1.77;;;14.10;50.90;;;;;;5096807;28;20177;-70
2022/09/05 14:10:50;;;;;;;1.50;1.50;;;15.10;53.70;;;;;;5097720;28;20224;-70
2022/09/05 14:13:49;;;;;;;3.05;1.80;;;19.30;52.00;;;;;;5097558;28;20250;-70